aviador You're here:

LFRV Decoded Metar

VANNES in FRANCE
Report Time2017-09-23 11:00:00
UTC Time2017-09-23 11:10:54
Flight Rules vfr VFR
Wind130° at 11 kt
W.Decomp.*RWY 08: 6.9 kt HW 8.5 kt RCW
RWY 22: 0.2 kt HW 11 kt LCW
W.Rank130° ranks 33
Current wind is above 130° avg. (6.2)
Visibility9999 m
Phenomena:N/A
Clouds:N/A
Expected CloudBase > 3,200 ft AGL from Temp-Dew spread
CeilingNone
Temp19°C (ISA +5)
Dew Point11°C (60% RH)
AAT15.4°C
QNH1020 hPa
Density Alt961 ft
Elevation445 ft
Report Wrong Elevation
Raw Report
METAR LFRV 231100Z AUTO 13011KT CAVOK 19/11 Q1020=

Extra information for LFRV:More info

Metar Taf Metar & Taf Last 4 Metars F.Rules Stats Wind Profile Meteogram Temp Stats Airport Information Weather charts Add Link Nearby VenuesMetar ALERT Operation Metar Decoded Social comments